Aspers, Pennsylvania
Current Conditions -  °F | °C
As of 8:53 AM on Thursday 27 Nov 2014 (Local Time) from KTHV Reporting Station
Overcast Overcast  
Wind Chill: 29°   Ceiling: 6000
Heat Index: 33°   Visibility: 10mi
Dew Point: 29°   Wind: 5mph
Humidity: 85%   Direction: 300°WNW
Pressure: 30.03"   Gusts: NA
Location:  39.98°N, 77.22°W
Report Text: KTHV 271353Z AUTO 30004KT 10SM OVC060 01/M02 A3003 RMK AO2 SLP177 T00061017
Loading
Personal Weather Stations






























Interactive Weather Map New forecast layout! Learn more

10-Day Weather Forecast

Advertisements
Track Severe Weather on mobile